Time;durP1;ratioP1;P1;durP2;ratioP2;P2;SDS_P1;SDS_P2;PMS_P1;PMS_P2;Temp;Humidity;BMP_temperature;BMP_pressure;BME280_temperature;BME280_humidity;BME280_pressure;Samples;Min_cycle;Max_cycle;Signal;HPM_P1;HPM_P2
2021/12/01 00:00:36;;;;;;;6.20;2.25;;;;;;;0.52;63.11;99239.51;1708744;84;21503;-76
2021/12/01 00:03:03;;;;;;;6.55;2.77;;;;;;;0.50;63.19;99237.44;1708923;82;21038;-76
2021/12/01 00:05:31;;;;;;;4.87;2.52;;;;;;;0.48;63.21;99241.36;1709180;84;21106;-75
2021/12/01 00:07:58;;;;;;;6.35;3.20;;;;;;;0.48;63.14;99243.11;1708836;84;20936;-75
2021/12/01 00:10:26;;;;;;;5.97;3.45;;;;;;;0.48;63.19;99249.10;1709195;83;20936;-75
2021/12/01 00:12:55;;;;;;;6.65;3.65;;;;;;;0.49;63.26;99250.80;1708787;82;20963;-75
2021/12/01 00:15:23;;;;;;;6.45;3.90;;;;;;;0.52;63.28;99247.25;1708950;84;21011;-75
2021/12/01 00:17:50;;;;;;;4.87;2.58;;;;;;;0.57;63.55;99250.47;1708901;82;21156;-75
2021/12/01 00:20:18;;;;;;;8.40;4.10;;;;;;;0.64;63.49;99244.61;1708897;84;21341;-75
2021/12/01 00:22:47;;;;;;;6.25;3.90;;;;;;;0.71;63.67;99248.17;1708868;82;21409;-75
2021/12/01 00:25:16;;;;;;;7.33;4.50;;;;;;;0.79;63.48;99246.55;1708899;84;20948;-74
2021/12/01 00:27:44;;;;;;;7.87;5.00;;;;;;;0.87;63.41;99250.08;1708943;82;20983;-74
2021/12/01 00:30:12;;;;;;;10.30;5.97;;;;;;;0.97;63.21;99251.38;1708936;84;21164;-74
2021/12/01 00:32:39;;;;;;;9.53;3.83;;;;;;;1.04;63.17;99259.23;1708834;82;20860;-76
2021/12/01 00:35:07;;;;;;;7.50;3.62;;;;;;;1.09;62.97;99265.49;1716579;82;20940;-76
2021/12/01 00:37:34;;;;;;;10.93;6.37;;;;;;;1.15;63.35;99267.82;1716429;83;21361;-75
2021/12/01 00:40:01;;;;;;;12.10;6.62;;;;;;;1.18;63.19;99262.55;1716752;83;20923;-75
2021/12/01 00:42:28;;;;;;;15.15;7.87;;;;;;;1.23;63.00;99260.59;1716332;82;21113;-75
2021/12/01 00:44:58;;;;;;;20.48;10.28;;;;;;;1.26;63.15;99250.58;1716623;83;21397;-75
2021/12/01 00:47:31;;;;;;;20.62;12.00;;;;;;;1.29;63.36;99252.58;1752769;81;20912;-75
2021/12/01 00:49:53;;;;;;;27.05;13.08;;;;;;;1.32;63.47;99255.02;1752090;81;21568;-75
2021/12/01 00:52:20;;;;;;;29.02;15.45;;;;;;;1.35;63.46;99254.87;1752968;80;20928;-75
2021/12/01 00:54:47;;;;;;;30.37;15.78;;;;;;;1.36;63.61;99252.69;1752660;82;22083;-74
2021/12/01 00:57:14;;;;;;;26.15;15.25;;;;;;;1.38;63.67;99256.47;1752688;82;20971;-77
2021/12/01 00:59:41;;;;;;;26.05;14.73;;;;;;;1.38;63.64;99248.73;1752662;82;20920;-76
2021/12/01 01:02:08;;;;;;;28.32;13.18;;;;;;;1.38;63.58;99247.44;1752623;80;20977;-75
2021/12/01 01:04:35;;;;;;;19.80;11.18;;;;;;;1.34;63.59;99240.75;1753273;80;20936;-76
2021/12/01 01:07:02;;;;;;;26.55;10.65;;;;;;;1.31;63.55;99245.61;1752624;82;21149;-75
2021/12/01 01:09:31;;;;;;;18.90;9.18;;;;;;;1.25;63.56;99240.70;1752602;82;21543;-76
2021/12/01 01:17:38;;;;;;;19.27;8.90;;;;;;;1.09;64.04;99244.41;1752559;80;21342;-75
2021/12/01 01:20:10;;;;;;;16.02;7.05;;;;;;;1.01;64.30;99248.60;1716529;83;21192;-75
2021/12/01 01:22:38;;;;;;;19.12;8.23;;;;;;;0.93;64.52;99241.63;1716308;83;20928;-75
2021/12/01 01:25:06;;;;;;;16.30;8.08;;;;;;;0.87;64.75;99248.36;1716741;83;21452;-76
2021/12/01 01:27:34;;;;;;;15.85;8.13;;;;;;;0.81;64.93;99253.77;1716429;83;20928;-76
2021/12/01 01:30:01;;;;;;;17.02;8.33;;;;;;;0.74;65.24;99253.19;1716801;83;20884;-75
2021/12/01 01:32:28;;;;;;;16.95;7.75;;;;;;;0.66;65.63;99249.25;1716485;83;21961;-77
2021/12/01 01:34:55;;;;;;;17.37;7.70;;;;;;;0.60;65.91;99251.19;1710057;83;20976;-75
2021/12/01 01:37:22;;;;;;;12.40;7.53;;;;;;;0.54;66.21;99254.47;1708811;84;21525;-76
2021/12/01 01:39:49;;;;;;;10.82;6.67;;;;;;;0.48;66.43;99249.10;1708798;82;20932;-76
2021/12/01 01:42:18;;;;;;;12.13;7.30;;;;;;;0.42;66.65;99248.05;1744684;82;20959;-76
2021/12/01 01:44:46;;;;;;;11.33;6.03;;;;;;;0.40;66.89;99256.30;1744583;81;22047;-75
2021/12/01 01:47:13;;;;;;;10.10;5.95;;;;;;;0.38;67.12;99258.12;1744347;82;21485;-73
2021/12/01 01:52:17;;;;;;;9.53;5.97;;;;;;;0.37;67.22;99249.98;1744894;82;21520;-76
2021/12/01 01:54:44;;;;;;;11.08;6.50;;;;;;;0.37;67.34;99252.11;1744593;82;20940;-75
2021/12/01 01:57:11;;;;;;;12.70;8.53;;;;;;;0.35;67.54;99257.78;1744768;81;21071;-75
2021/12/01 01:59:37;;;;;;;18.50;9.45;;;;;;;0.33;67.80;99264.73;1744630;81;21386;-75
2021/12/01 02:02:04;;;;;;;14.65;9.40;;;;;;;0.31;68.36;99265.70;1687722;83;21073;-75
2021/12/01 02:04:34;;;;;;;15.48;10.15;;;;;;;0.29;68.85;99267.07;1708734;84;20928;-75
2021/12/01 02:07:02;;;;;;;15.30;9.28;;;;;;;0.28;69.26;99260.67;1744791;82;21110;-75
2021/12/01 02:09:29;;;;;;;14.58;9.95;;;;;;;0.26;69.79;99260.73;1744565;82;21394;-76
2021/12/01 02:11:59;;;;;;;14.35;9.93;;;;;;;0.24;70.23;99258.66;1744888;81;20971;-75
2021/12/01 02:14:26;;;;;;;15.68;10.70;;;;;;;0.20;70.54;99257.95;1744435;82;20988;-75
2021/12/01 02:16:55;;;;;;;13.62;8.78;;;;;;;0.17;70.95;99261.09;1744900;81;21007;-76
2021/12/01 02:19:22;;;;;;;14.50;9.73;;;;;;;0.15;71.22;99262.44;1744516;82;20861;-76
2021/12/01 02:21:49;;;;;;;14.15;9.65;;;;;;;0.13;71.47;99259.53;1744831;81;21099;-76
2021/12/01 02:24:18;;;;;;;20.10;10.30;;;;;;;0.11;71.71;99262.19;1744459;82;20944;-76
2021/12/01 02:26:47;;;;;;;15.05;10.50;;;;;;;0.10;71.88;99267.39;1744812;82;20921;-75
2021/12/01 02:29:17;;;;;;;18.20;11.28;;;;;;;0.08;72.07;99270.02;1744530;81;20869;-76
2021/12/01 02:31:45;;;;;;;13.58;10.05;;;;;;;0.08;72.18;99283.36;1744940;82;21438;-77
2021/12/01 02:34:16;;;;;;;16.77;12.20;;;;;;;0.07;72.29;99281.67;1744289;82;21121;-76
2021/12/01 02:36:47;;;;;;;16.12;9.95;;;;;;;0.04;72.41;99283.09;1744867;82;20968;-76
2021/12/01 02:39:16;;;;;;;16.52;10.35;;;;;;;0.00;72.50;99286.25;1733877;82;21454;-75
2021/12/01 02:41:44;;;;;;;16.65;9.55;;;;;;;-0.02;72.71;99282.44;1744841;82;21632;-75
2021/12/01 02:44:12;;;;;;;13.78;9.93;;;;;;;-0.03;72.83;99287.19;1744635;82;21014;-76
2021/12/01 02:46:39;;;;;;;15.72;10.10;;;;;;;-0.02;72.92;99285.47;1744501;81;22023;-74
2021/12/01 02:49:06;;;;;;;15.30;12.10;;;;;;;-0.03;72.99;99293.63;1744522;81;21430;-74
2021/12/01 02:51:37;;;;;;;17.00;10.88;;;;;;;-0.03;73.06;99292.34;1744649;82;20918;-75
2021/12/01 02:54:05;;;;;;;16.90;11.25;;;;;;;-0.04;73.09;99294.53;1744429;82;20928;-75
2021/12/01 02:56:33;;;;;;;19.67;12.10;;;;;;;-0.05;73.17;99302.31;1744576;82;21025;-76
2021/12/01 02:59:01;;;;;;;17.92;12.18;;;;;;;-0.08;73.21;99298.13;1744681;82;21988;-76
2021/12/01 03:01:29;;;;;;;19.70;13.08;;;;;;;-0.10;73.32;99304.23;1744597;82;21439;-75
2021/12/01 03:03:59;;;;;;;20.43;13.43;;;;;;;-0.12;73.42;99306.03;1744498;81;20984;-74
2021/12/01 03:06:26;;;;;;;17.40;10.90;;;;;;;-0.13;73.48;99312.09;1744537;81;20932;-75
2021/12/01 03:08:53;;;;;;;14.87;10.95;;;;;;;-0.14;73.59;99310.39;1744852;82;21586;-75
2021/12/01 03:11:21;;;;;;;23.73;13.55;;;;;;;-0.16;73.66;99311.73;1744634;82;20956;-74
2021/12/01 03:13:48;;;;;;;17.98;11.45;;;;;;;-0.19;73.74;99309.28;1744558;82;20892;-74
2021/12/01 03:16:15;;;;;;;15.60;9.70;;;;;;;-0.18;73.81;99308.83;1744487;81;20972;-76
2021/12/01 03:18:46;;;;;;;11.93;9.38;;;;;;;-0.19;73.85;99303.30;1744407;82;20941;-76
2021/12/01 03:21:13;;;;;;;11.70;9.28;;;;;;;-0.21;73.92;99305.92;1744689;81;20964;-75
2021/12/01 03:23:40;;;;;;;17.02;10.72;;;;;;;-0.24;73.98;99306.87;1744811;81;21787;-75
2021/12/01 03:26:07;;;;;;;13.83;9.58;;;;;;;-0.25;74.03;99308.21;1744794;82;20960;-77
2021/12/01 03:28:36;;;;;;;14.05;9.88;;;;;;;-0.27;74.12;99304.42;1744920;81;20988;-76
2021/12/01 03:31:03;;;;;;;16.30;10.88;;;;;;;-0.27;74.18;99307.42;1744628;81;20964;-76
2021/12/01 03:33:31;;;;;;;13.60;9.80;;;;;;;-0.27;74.20;99307.42;1744759;82;21004;-76
2021/12/01 03:35:58;;;;;;;14.80;10.23;;;;;;;-0.28;74.16;99313.48;1744766;82;21079;-77
2021/12/01 03:38:27;;;;;;;18.57;11.20;;;;;;;-0.30;74.17;99312.70;1744727;80;20960;-76
2021/12/01 03:40:56;;;;;;;19.12;10.50;;;;;;;-0.32;74.20;99317.90;1744928;81;20917;-77
2021/12/01 03:43:23;;;;;;;13.68;9.75;;;;;;;-0.35;74.28;99316.73;1744678;82;20889;-77
2021/12/01 03:45:50;;;;;;;14.58;9.90;;;;;;;-0.35;74.42;99326.20;1744728;82;21378;-76
2021/12/01 03:48:17;;;;;;;14.23;9.58;;;;;;;-0.36;74.39;99329.20;1744663;82;21087;-76
2021/12/01 03:50:48;;;;;;;15.63;9.45;;;;;;;-0.36;74.40;99328.37;1745061;82;21096;-76
2021/12/01 03:53:13;;;;;;;13.22;9.00;;;;;;;-0.38;74.45;99332.28;1744611;81;21414;-76
2021/12/01 03:55:40;;;;;;;11.85;9.70;;;;;;;-0.40;74.32;99336.67;1744604;82;20865;-76
2021/12/01 03:58:07;;;;;;;11.48;9.70;;;;;;;-0.45;74.51;99335.52;1744914;80;20905;-76
2021/12/01 04:00:34;;;;;;;13.98;10.10;;;;;;;-0.46;74.54;99342.87;1745067;81;21496;-76
2021/12/01 04:03:03;;;;;;;17.45;10.95;;;;;;;-0.48;74.66;99343.82;1744842;80;20910;-76
2021/12/01 04:05:31;;;;;;;12.20;10.35;;;;;;;-0.49;74.77;99345.56;1744724;82;20858;-76
2021/12/01 04:07:58;;;;;;;13.45;9.35;;;;;;;-0.51;74.82;99346.06;1744859;81;21434;-77
2021/12/01 04:10:25;;;;;;;17.05;9.70;;;;;;;-0.53;74.80;99353.00;1744717;82;20858;-77
2021/12/01 04:12:52;;;;;;;14.45;10.82;;;;;;;-0.58;74.76;99351.01;1744622;81;21148;-76
2021/12/01 04:15:19;;;;;;;14.80;11.18;;;;;;;-0.64;74.80;99348.22;1744735;82;20972;-77
2021/12/01 04:17:46;;;;;;;12.70;9.33;;;;;;;-0.68;74.95;99350.95;1744706;80;20973;-75
2021/12/01 04:20:15;;;;;;;14.03;9.38;;;;;;;-0.73;75.08;99342.11;1744808;81;21000;-77
2021/12/01 04:22:43;;;;;;;14.95;8.83;;;;;;;-0.76;75.20;99354.23;1745005;82;20897;-75
2021/12/01 04:25:10;;;;;;;21.20;12.68;;;;;;;-0.82;75.27;99354.00;1744747;82;21303;-76
2021/12/01 04:27:38;;;;;;;17.98;12.80;;;;;;;-0.86;75.37;99348.56;1744964;81;20933;-76
2021/12/01 04:30:08;;;;;;;15.05;10.30;;;;;;;-0.92;75.58;99354.73;1744864;81;20932;-76
2021/12/01 04:32:36;;;;;;;15.55;10.08;;;;;;;-0.97;75.78;99352.78;1744689;82;20936;-76
2021/12/01 04:35:05;;;;;;;13.50;9.60;;;;;;;-1.02;75.98;99351.23;1750413;81;20908;-75
2021/12/01 04:37:34;;;;;;;13.22;8.83;;;;;;;-1.06;76.15;99354.38;1758015;80;21823;-76
2021/12/01 04:40:01;;;;;;;14.33;9.65;;;;;;;-1.09;76.32;99360.47;1758210;80;21445;-77
2021/12/01 04:42:29;;;;;;;13.10;9.20;;;;;;;-1.13;76.42;99361.45;1757964;81;20967;-79
2021/12/01 04:44:56;;;;;;;12.28;9.73;;;;;;;-1.14;76.57;99361.48;1758263;80;20979;-76
2021/12/01 04:47:28;;;;;;;14.78;9.48;;;;;;;-1.14;76.63;99356.34;1721907;83;21523;-77
2021/12/01 04:49:52;;;;;;;11.75;9.35;;;;;;;-1.14;76.71;99355.89;1721852;83;21031;-78
2021/12/01 04:52:19;;;;;;;15.20;8.58;;;;;;;-1.12;76.75;99363.12;1722113;82;21432;-77
2021/12/01 04:54:46;;;;;;;15.00;9.30;;;;;;;-1.09;76.87;99363.45;1721931;83;20860;-78
2021/12/01 04:57:12;;;;;;;14.15;10.40;;;;;;;-1.06;76.96;99368.52;1721866;83;20954;-77
2021/12/01 04:59:40;;;;;;;17.98;10.88;;;;;;;-1.04;77.04;99366.74;1703860;84;20905;-75
2021/12/01 05:02:07;;;;;;;20.50;13.78;;;;;;;-0.99;76.82;99362.27;1704211;84;21071;-77
2021/12/01 05:04:34;;;;;;;17.25;12.60;;;;;;;-0.96;76.82;99365.19;1657333;84;20885;-77
2021/12/01 05:07:01;;;;;;;21.57;13.58;;;;;;;-0.92;76.72;99364.20;1703959;84;20948;-77
2021/12/01 05:09:27;;;;;;;17.73;13.65;;;;;;;-0.91;76.68;99361.59;1703804;84;21414;-76
2021/12/01 05:11:55;;;;;;;26.23;16.40;;;;;;;-0.88;76.55;99358.89;1703670;84;21418;-78
2021/12/01 05:14:25;;;;;;;20.43;14.15;;;;;;;-0.86;76.50;99356.28;1704019;84;21125;-78
2021/12/01 05:16:51;;;;;;;26.33;16.75;;;;;;;-0.82;76.39;99361.73;1704056;84;20929;-78
2021/12/01 05:19:19;;;;;;;23.75;15.13;;;;;;;-0.83;76.32;99361.31;1703911;84;20905;-78
2021/12/01 05:21:46;;;;;;;20.37;14.87;;;;;;;-0.82;76.20;99369.45;1704016;84;20957;-78
2021/12/01 05:24:13;;;;;;;24.50;14.43;;;;;;;-0.82;76.16;99364.72;1704045;84;20984;-78
2021/12/01 05:26:41;;;;;;;19.70;13.90;;;;;;;-0.83;76.09;99369.03;1703961;84;21580;-78
2021/12/01 05:29:07;;;;;;;20.90;13.93;;;;;;;-0.83;76.04;99380.61;1703998;84;21410;-78
2021/12/01 05:31:34;;;;;;;18.25;12.60;;;;;;;-0.82;76.04;99380.16;1703845;84;20889;-79
2021/12/01 05:34:01;;;;;;;17.65;11.38;;;;;;;-0.80;75.99;99389.54;1703667;84;21434;-78
2021/12/01 05:36:28;;;;;;;15.78;11.25;;;;;;;-0.80;76.01;99389.54;1696290;84;20862;-78
2021/12/01 05:38:55;;;;;;;17.25;10.93;;;;;;;-0.78;76.02;99393.33;1695604;84;21163;-78
2021/12/01 05:41:23;;;;;;;16.37;11.50;;;;;;;-0.77;76.09;99386.85;1708470;84;20944;-77
2021/12/01 05:43:50;;;;;;;15.48;11.25;;;;;;;-0.73;76.01;99383.74;1708537;84;20869;-78
2021/12/01 05:46:17;;;;;;;14.10;10.00;;;;;;;-0.70;75.94;99382.34;1708558;83;21471;-78
2021/12/01 05:48:44;;;;;;;19.27;13.15;;;;;;;-0.65;75.90;99380.44;1708679;83;20992;-76
2021/12/01 05:51:11;;;;;;;19.02;12.47;;;;;;;-0.60;75.87;99379.86;1708536;83;21204;-77
2021/12/01 05:53:38;;;;;;;15.48;10.38;;;;;;;-0.54;75.78;99377.50;1708436;83;20941;-76
2021/12/01 05:56:07;;;;;;;13.40;9.43;;;;;;;-0.48;75.62;99381.16;1708871;83;20945;-75
2021/12/01 05:58:34;;;;;;;14.20;9.85;;;;;;;-0.44;75.43;99377.13;1708938;83;21465;-78
2021/12/01 06:01:03;;;;;;;14.33;9.75;;;;;;;-0.40;75.11;99377.88;1708759;83;20937;-77
2021/12/01 06:03:30;;;;;;;12.82;9.20;;;;;;;-0.37;75.09;99381.63;1708474;83;22155;-77
2021/12/01 06:05:59;;;;;;;15.40;8.75;;;;;;;-0.35;74.94;99376.42;1708419;84;21074;-78
2021/12/01 06:08:26;;;;;;;14.18;10.10;;;;;;;-0.35;74.78;99375.14;1708634;83;20933;-77
2021/12/01 06:10:53;;;;;;;13.70;9.75;;;;;;;-0.32;74.78;99377.14;1708776;84;20976;-77
2021/12/01 06:13:24;;;;;;;13.00;9.03;;;;;;;-0.32;74.74;99368.13;1708587;83;21394;-78
2021/12/01 06:15:51;;;;;;;13.58;9.35;;;;;;;-0.31;74.66;99366.38;1709094;83;21547;-77
2021/12/01 06:18:18;;;;;;;11.22;8.68;;;;;;;-0.30;74.63;99371.94;1708933;83;20992;-77
2021/12/01 06:20:45;;;;;;;12.03;7.78;;;;;;;-0.24;74.57;99369.16;1708485;84;21004;-76
2021/12/01 06:23:13;;;;;;;11.25;7.85;;;;;;;-0.19;74.41;99371.56;1708692;84;20917;-77
2021/12/01 06:25:40;;;;;;;13.78;8.30;;;;;;;-0.14;74.08;99361.47;1708774;84;20901;-76
2021/12/01 06:28:07;;;;;;;12.20;8.50;;;;;;;-0.10;73.96;99364.78;1708646;83;21129;-77
2021/12/01 06:30:36;;;;;;;14.05;8.25;;;;;;;-0.04;73.73;99363.28;1708731;84;20880;-77
2021/12/01 06:33:03;;;;;;;13.48;9.05;;;;;;;0.05;73.30;99369.37;1708512;83;20945;-77
2021/12/01 06:35:30;;;;;;;13.22;8.93;;;;;;;0.09;72.89;99368.80;1708463;83;20996;-78
2021/12/01 06:37:57;;;;;;;13.68;9.38;;;;;;;0.15;72.71;99369.41;1708565;84;20945;-77
2021/12/01 06:40:25;;;;;;;13.10;9.48;;;;;;;0.18;72.56;99373.63;1709070;83;21142;-76
2021/12/01 06:42:52;;;;;;;13.75;9.08;;;;;;;0.24;72.38;99379.83;1708444;83;21439;-77
2021/12/01 06:45:19;;;;;;;16.97;9.65;;;;;;;0.28;72.23;99374.11;1704023;83;20998;-78
2021/12/01 06:47:47;;;;;;;15.53;9.25;;;;;;;0.32;72.16;99372.65;1708563;83;20988;-77
2021/12/01 06:50:14;;;;;;;15.08;11.33;;;;;;;0.35;72.00;99371.23;1708884;84;21040;-78
2021/12/01 06:52:42;;;;;;;15.65;11.48;;;;;;;0.39;71.85;99380.98;1708741;84;21925;-77
2021/12/01 06:55:09;;;;;;;18.25;10.53;;;;;;;0.45;71.84;99379.93;1709042;84;20885;-77
2021/12/01 06:57:37;;;;;;;18.42;11.70;;;;;;;0.50;71.71;99376.71;1708667;84;20945;-77
2021/12/01 07:00:07;;;;;;;26.25;15.53;;;;;;;0.54;71.50;99379.11;1708570;84;20920;-76
2021/12/01 07:02:34;;;;;;;16.00;10.98;;;;;;;0.58;71.35;99372.94;1709011;84;21461;-80
2021/12/01 07:05:01;;;;;;;21.65;12.50;;;;;;;0.65;71.23;99372.70;1704130;83;21192;-78
2021/12/01 07:07:28;;;;;;;19.40;11.65;;;;;;;0.69;71.04;99381.55;1708695;84;20905;-80
2021/12/01 07:09:56;;;;;;;19.92;13.32;;;;;;;0.73;70.81;99371.93;1708821;84;21012;-80
2021/12/01 07:12:23;;;;;;;18.27;12.43;;;;;;;0.76;70.52;99368.79;1708660;84;21000;-79
2021/12/01 07:14:51;;;;;;;28.87;13.45;;;;;;;0.80;70.40;99364.33;1709031;83;20846;-82
2021/12/01 07:17:19;;;;;;;19.48;13.28;;;;;;;0.84;70.19;99356.86;1708716;84;21166;-82
2021/12/01 07:19:48;;;;;;;21.02;12.13;;;;;;;0.87;69.98;99356.75;1708693;84;20913;-79
2021/12/01 07:22:15;;;;;;;20.85;13.48;;;;;;;0.90;69.78;99355.78;1709099;84;20936;-79
2021/12/01 07:24:45;;;;;;;22.13;13.25;;;;;;;0.95;69.61;99356.42;1708805;84;20929;-77
2021/12/01 07:27:12;;;;;;;23.27;12.55;;;;;;;1.01;69.40;99352.31;1708914;83;20941;-77
2021/12/01 07:29:38;;;;;;;22.07;12.82;;;;;;;1.07;69.31;99355.94;1708781;83;21361;-78
2021/12/01 07:32:06;;;;;;;22.27;13.10;;;;;;;1.12;68.94;99351.41;1708918;84;21469;-77
2021/12/01 07:34:41;;;;;;;20.43;11.80;;;;;;;1.15;68.76;99353.84;1709359;83;20972;-80
2021/12/01 07:37:02;;;;;;;18.90;11.68;;;;;;;1.18;68.51;99347.75;1717256;83;20928;-78
2021/12/01 07:39:29;;;;;;;14.05;10.65;;;;;;;1.18;68.41;99347.28;1720190;83;20900;-80
2021/12/01 07:41:57;;;;;;;12.85;10.38;;;;;;;1.19;68.50;99351.98;1720389;83;21398;-78
2021/12/01 07:44:24;;;;;;;20.12;12.95;;;;;;;1.23;68.60;99363.41;1720195;83;20955;-82
2021/12/01 07:46:51;;;;;;;18.23;9.75;;;;;;;1.27;68.52;99349.94;1720394;83;20897;-78
2021/12/01 07:49:19;;;;;;;17.85;11.12;;;;;;;1.33;68.44;99348.82;1724815;83;20904;-81
2021/12/01 07:51:46;;;;;;;11.83;7.90;;;;;;;1.38;68.15;99346.44;1725392;83;20979;-80
2021/12/01 07:54:13;;;;;;;11.88;7.72;;;;;;;1.42;67.77;99344.55;1725278;83;21140;-81
2021/12/01 07:56:40;;;;;;;18.45;8.95;;;;;;;1.45;67.62;99343.98;1725517;83;20971;-80
2021/12/01 07:59:08;;;;;;;14.53;9.48;;;;;;;1.48;67.47;99342.16;1725143;81;20943;-80
2021/12/01 08:01:35;;;;;;;9.23;6.97;;;;;;;1.52;67.44;99341.97;1725234;81;20931;-79
2021/12/01 08:04:02;;;;;;;9.25;6.97;;;;;;;1.57;67.24;99347.77;1725541;80;20979;-79
2021/12/01 08:06:31;;;;;;;8.55;6.60;;;;;;;1.59;66.73;99345.95;1725352;80;21095;-80
2021/12/01 08:09:00;;;;;;;11.45;7.25;;;;;;;1.60;66.36;99341.19;1724859;81;20958;-81
2021/12/01 08:11:27;;;;;;;10.43;7.10;;;;;;;1.64;66.76;99353.50;1725177;80;20946;-78
2021/12/01 08:13:54;;;;;;;12.68;7.53;;;;;;;1.69;66.79;99349.42;1724844;80;20983;-79
2021/12/01 08:16:21;;;;;;;12.05;6.55;;;;;;;1.69;66.69;99354.59;1724411;81;21218;-80
2021/12/01 08:18:51;;;;;;;10.88;6.60;;;;;;;1.68;66.17;99358.09;1725972;80;21077;-79
2021/12/01 08:21:17;;;;;;;11.45;6.37;;;;;;;1.66;66.44;99349.11;1724803;80;21002;-79
2021/12/01 08:23:44;;;;;;;7.80;5.85;;;;;;;1.66;66.38;99353.81;1724699;80;21022;-78
2021/12/01 08:26:13;;;;;;;8.28;5.62;;;;;;;1.67;66.19;99349.52;1696785;83;21333;-78
2021/12/01 08:28:41;;;;;;;8.55;6.17;;;;;;;1.70;66.21;99342.07;1722602;83;20922;-80
2021/12/01 08:31:11;;;;;;;9.15;5.50;;;;;;;1.75;66.07;99337.53;1722369;83;21997;-80
2021/12/01 08:33:37;;;;;;;8.58;6.08;;;;;;;1.82;65.83;99329.87;1722341;83;20962;-75
2021/12/01 08:36:04;;;;;;;10.40;7.40;;;;;;;1.89;65.82;99324.84;1720416;82;21495;-78
2021/12/01 08:38:31;;;;;;;8.03;5.47;;;;;;;1.98;65.52;99323.13;1716762;83;20987;-78
2021/12/01 08:40:59;;;;;;;10.20;6.72;;;;;;;2.02;65.30;99331.13;1717026;83;20949;-79
2021/12/01 08:43:25;;;;;;;10.60;6.85;;;;;;;2.05;65.40;99322.39;1716812;83;21146;-78
2021/12/01 08:45:52;;;;;;;12.33;7.25;;;;;;;2.08;65.35;99319.19;1716807;83;20892;-79
2021/12/01 08:48:21;;;;;;;9.95;6.95;;;;;;;2.10;65.41;99317.84;1716471;83;20888;-77
2021/12/01 08:50:48;;;;;;;8.43;6.70;;;;;;;2.12;65.17;99315.19;1716550;83;20932;-77
2021/12/01 08:53:15;;;;;;;12.43;7.60;;;;;;;2.08;65.34;99310.14;1716503;83;20983;-76
2021/12/01 08:55:45;;;;;;;14.38;8.25;;;;;;;2.10;65.59;99307.95;1716511;83;21073;-80
2021/12/01 08:58:13;;;;;;;14.05;7.70;;;;;;;2.11;65.76;99309.62;1716473;82;21318;-77
2021/12/01 09:00:44;;;;;;;10.70;8.33;;;;;;;2.10;65.72;99294.56;1716945;82;20943;-78
2021/12/01 09:03:13;;;;;;;14.28;8.65;;;;;;;2.09;65.76;99300.66;1716754;82;21028;-78
2021/12/01 09:05:40;;;;;;;11.18;7.40;;;;;;;2.07;65.85;99290.84;1717186;83;20899;-79
2021/12/01 09:08:07;;;;;;;11.88;7.90;;;;;;;2.04;65.89;99287.91;1717456;83;21498;-81
2021/12/01 09:10:37;;;;;;;9.03;6.50;;;;;;;2.01;65.97;99277.73;1716773;83;20948;-81
2021/12/01 09:13:05;;;;;;;12.43;7.83;;;;;;;2.02;66.04;99280.72;1716841;82;20979;-81
2021/12/01 09:15:32;;;;;;;13.03;8.88;;;;;;;2.02;66.40;99274.68;1716685;83;20919;-79
2021/12/01 09:17:59;;;;;;;12.13;8.93;;;;;;;2.02;66.42;99283.30;1716464;82;20884;-80
2021/12/01 09:20:26;;;;;;;13.15;8.08;;;;;;;2.05;66.34;99277.14;1716725;83;21529;-79
2021/12/01 09:22:53;;;;;;;10.78;7.62;;;;;;;2.06;66.41;99283.52;1716864;82;20981;-79
2021/12/01 09:25:20;;;;;;;9.93;7.55;;;;;;;2.08;66.40;99280.87;1716905;83;20947;-80
2021/12/01 09:27:48;;;;;;;9.80;7.45;;;;;;;2.08;66.53;99279.58;1716458;83;20924;-77
2021/12/01 09:30:16;;;;;;;10.13;7.50;;;;;;;2.11;66.74;99275.54;1716586;83;20951;-76
2021/12/01 09:32:45;;;;;;;10.55;7.92;;;;;;;2.14;66.61;99281.05;1716365;83;21170;-77
2021/12/01 09:35:13;;;;;;;11.38;7.50;;;;;;;2.16;66.66;99276.65;1716448;82;21561;-76
2021/12/01 09:37:43;;;;;;;11.33;7.30;;;;;;;2.15;66.59;99276.25;1709694;82;20892;-76
2021/12/01 09:40:17;;;;;;;11.90;7.60;;;;;;;2.17;66.54;99268.80;1708809;82;20912;-80
2021/12/01 09:42:49;;;;;;;16.50;9.33;;;;;;;2.17;66.71;99266.67;1708549;84;20948;-76
2021/12/01 09:45:20;;;;;;;14.28;8.00;;;;;;;2.21;66.86;99263.86;1744509;82;21520;-78
2021/12/01 09:47:49;;;;;;;9.88;7.10;;;;;;;2.24;66.80;99266.29;1733819;82;20987;-79
2021/12/01 09:50:16;;;;;;;9.15;6.78;;;;;;;2.23;66.64;99272.39;1744773;82;20932;-79
2021/12/01 09:52:43;;;;;;;11.48;8.20;;;;;;;2.21;66.84;99270.33;1709184;83;21042;-80
2021/12/01 09:55:12;;;;;;;10.90;8.33;;;;;;;2.22;66.92;99268.14;1709247;84;20900;-80
2021/12/01 09:57:58;;;;;;;11.50;7.92;;;;;;;2.22;67.20;99265.98;1709111;84;21789;-81
2021/12/01 10:00:25;;;;;;;11.03;7.47;;;;;;;2.23;67.18;99269.80;1709517;84;20987;-79
2021/12/01 10:02:52;;;;;;;9.70;7.33;;;;;;;2.22;67.32;99262.97;1709265;84;20900;-78
2021/12/01 10:06:13;;;;;;;14.23;8.75;;;;;;;2.24;67.41;99262.88;1708590;84;21026;-79
2021/12/01 10:08:44;;;;;;;11.12;7.47;;;;;;;2.25;67.58;99265.40;1708763;84;20971;-79
2021/12/01 10:11:28;;;;;;;11.22;7.25;;;;;;;2.26;67.64;99264.47;1708818;82;21389;-79
2021/12/01 10:14:17;;;;;;;13.22;8.35;;;;;;;2.26;67.67;99265.77;1708396;83;20932;-78
2021/12/01 10:16:44;;;;;;;13.08;6.83;;;;;;;2.26;67.87;99265.77;1708765;84;20896;-86
2021/12/01 10:19:13;;;;;;;14.00;7.60;;;;;;;2.24;68.12;99269.34;1708923;84;20908;-76
2021/12/01 10:21:45;;;;;;;13.25;9.05;;;;;;;2.23;68.12;99263.80;1708703;84;20904;-76
2021/12/01 10:24:21;;;;;;;10.08;7.40;;;;;;;2.20;68.28;99258.33;1708838;84;21569;-75
2021/12/01 10:26:56;;;;;;;12.10;7.25;;;;;;;2.19;68.28;99265.69;1708628;84;21460;-76
2021/12/01 10:29:30;;;;;;;11.70;8.23;;;;;;;2.18;68.50;99265.75;1708662;82;21378;-78
2021/12/01 10:32:07;;;;;;;11.12;7.85;;;;;;;2.15;68.55;99265.44;1708900;84;26485;-77
2021/12/01 10:34:39;;;;;;;14.23;9.23;;;;;;;2.14;68.64;99262.48;1708738;82;21472;-76
2021/12/01 10:37:22;;;;;;;15.55;9.53;;;;;;;2.14;68.68;99259.91;1708633;82;21134;-79
2021/12/01 10:39:49;;;;;;;14.35;9.85;;;;;;;2.13;68.89;99265.97;1708525;83;21421;-76
2021/12/01 10:42:17;;;;;;;14.03;8.90;;;;;;;2.09;69.03;99267.05;1708698;84;20935;-75
2021/12/01 10:45:04;;;;;;;17.25;10.03;;;;;;;2.08;69.30;99268.77;1708850;84;20935;-78
2021/12/01 10:47:43;;;;;;;19.60;12.47;;;;;;;2.06;69.45;99263.30;1744541;81;20904;-78
2021/12/01 10:50:57;;;;;;;26.55;16.23;;;;;;;2.12;69.67;99257.02;1798661;79;22665;-77
2021/12/01 10:53:25;;;;;;;17.48;11.20;;;;;;;2.06;69.76;99258.12;1758350;80;20908;-82
2021/12/01 10:55:56;;;;;;;14.53;9.78;;;;;;;2.09;69.87;99252.83;1758340;81;21179;-78
2021/12/01 10:58:38;;;;;;;10.95;8.88;;;;;;;2.13;69.87;99259.50;1758075;81;20892;-75
2021/12/01 11:01:20;;;;;;;14.98;9.23;;;;;;;2.13;69.87;99247.03;1757758;80;20924;-78
2021/12/01 11:03:48;;;;;;;13.00;8.80;;;;;;;2.19;69.85;99260.51;1758246;81;20924;-79
2021/12/01 11:06:23;;;;;;;13.90;8.38;;;;;;;2.24;69.76;99261.58;1758602;81;20897;-78
2021/12/01 11:08:58;;;;;;;14.15;9.38;;;;;;;2.27;69.76;99262.75;1758452;80;21010;-77
2021/12/01 11:11:42;;;;;;;13.83;8.85;;;;;;;2.30;69.81;99261.76;1758170;81;21382;-77
2021/12/01 11:14:13;;;;;;;12.63;9.93;;;;;;;2.31;69.72;99264.72;1731455;81;20955;-76
2021/12/01 11:16:41;;;;;;;11.78;8.58;;;;;;;2.30;69.70;99266.94;1757892;81;21461;-77
2021/12/01 11:19:08;;;;;;;11.53;8.75;;;;;;;2.26;69.86;99264.47;1758261;80;21401;-81
2021/12/01 11:21:37;;;;;;;11.05;8.60;;;;;;;2.25;70.06;99264.57;1758656;81;21213;-80
2021/12/01 11:24:12;;;;;;;10.43;8.00;;;;;;;2.24;70.24;99266.29;1758521;81;20928;-83
2021/12/01 11:26:43;;;;;;;14.33;9.30;;;;;;;2.23;70.47;99269.80;1758458;81;20972;-81
2021/12/01 11:29:12;;;;;;;12.15;8.95;;;;;;;2.24;70.67;99261.58;1758691;80;21428;-82
2021/12/01 11:31:44;;;;;;;13.60;10.58;;;;;;;2.25;70.93;99262.81;1758731;81;20973;-80
2021/12/01 11:34:16;;;;;;;11.88;9.70;;;;;;;2.27;71.14;99263.58;1758287;81;20967;-80
2021/12/01 11:36:47;;;;;;;13.68;9.88;;;;;;;2.27;71.27;99265.34;1758282;81;20924;-80
2021/12/01 11:39:18;;;;;;;15.95;9.55;;;;;;;2.26;71.37;99267.06;1758591;81;20861;-81
2021/12/01 11:41:47;;;;;;;12.47;8.73;;;;;;;2.28;71.40;99265.23;1758423;81;20896;-84
2021/12/01 11:44:14;;;;;;;17.87;11.55;;;;;;;2.30;71.64;99270.35;1758955;81;20976;-83